Time;durP1;ratioP1;P1;durP2;ratioP2;P2;SDS_P1;SDS_P2;PMS_P1;PMS_P2;Temp;Humidity;BMP_temperature;BMP_pressure;BME280_temperature;BME280_humidity;BME280_pressure;Samples;Min_cycle;Max_cycle;Signal;HPM_P1;HPM_P2
2021/05/08 00:00:59;;;;;;;;;;;7.00;74.20;;;;;;5066304;28;20037;-66
2021/05/08 00:03:25;;;;;;;3.20;1.13;;;7.00;74.00;;;;;;5065812;28;19909;-67
2021/05/08 00:05:51;;;;;;;;;;;7.00;74.30;;;;;;5066120;28;20040;-67
2021/05/08 00:08:16;;;;;;;2.10;1.00;;;7.00;74.60;;;;;;5065372;28;19905;-66
2021/05/08 00:10:42;;;;;;;;;;;6.90;74.90;;;;;;5065955;28;20081;-67
2021/05/08 00:13:09;;;;;;;2.10;1.13;;;6.80;74.70;;;;;;5065678;28;20384;-66
2021/05/08 00:15:35;;;;;;;2.30;0.90;;;6.80;75.10;;;;;;5065332;28;20067;-66
2021/05/08 00:18:00;;;;;;;;;;;6.80;75.20;;;;;;5064444;28;20052;-67
2021/05/08 00:20:26;;;;;;;1.55;1.00;;;6.70;75.30;;;;;;5065341;28;20205;-66
2021/05/08 00:22:51;;;;;;;2.20;1.40;;;6.80;75.20;;;;;;5065345;28;20443;-67
2021/05/08 00:25:17;;;;;;;;;;;6.80;75.30;;;;;;5065638;28;20043;-66
2021/05/08 00:27:42;;;;;;;2.92;1.25;;;6.70;75.30;;;;;;5063862;28;19905;-67
2021/05/08 00:30:08;;;;;;;;;;;6.80;75.40;;;;;;5066181;28;20378;-66
2021/05/08 00:32:35;;;;;;;2.83;1.20;;;6.70;75.20;;;;;;5065346;28;19904;-66
2021/05/08 00:35:00;;;;;;;3.10;1.50;;;6.80;75.00;;;;;;5064014;28;20054;-67
2021/05/08 00:37:26;;;;;;;;;;;6.70;75.40;;;;;;5066048;28;20028;-67
2021/05/08 00:39:52;;;;;;;1.40;0.80;;;6.80;75.40;;;;;;5067477;28;20253;-67
2021/05/08 00:42:17;;;;;;;;;;;6.80;75.60;;;;;;5069227;28;20024;-67
2021/05/08 00:44:43;;;;;;;3.05;1.30;;;6.60;75.90;;;;;;5068861;28;19951;-67
2021/05/08 00:47:11;;;;;;;;;;;6.60;76.30;;;;;;5069680;28;20081;-66
2021/05/08 00:49:38;;;;;;;2.33;1.20;;;6.60;76.60;;;;;;5069127;28;20006;-67
2021/05/08 00:52:04;;;;;;;2.72;1.40;;;6.50;76.70;;;;;;5069399;28;20678;-66
2021/05/08 00:54:30;;;;;;;8.98;1.33;;;6.50;76.80;;;;;;5068870;28;20027;-67
2021/05/08 00:56:55;;;;;;;;;;;6.40;76.60;;;;;;5069483;28;20025;-65
2021/05/08 00:59:21;;;;;;;3.55;1.23;;;6.40;77.00;;;;;;5067530;28;19909;-67
2021/05/08 01:01:47;;;;;;;;;;;6.40;77.30;;;;;;5069204;28;20103;-66
2021/05/08 01:04:12;;;;;;;4.15;1.20;;;6.30;77.20;;;;;;5068733;28;19909;-67
2021/05/08 01:06:39;;;;;;;2.17;1.17;;;6.30;76.90;;;;;;5068897;28;20802;-66
2021/05/08 01:09:06;;;;;;;2.67;1.38;;;6.40;76.30;;;;;;5068354;28;20075;-67
2021/05/08 01:11:32;;;;;;;2.33;0.95;;;6.40;75.70;;;;;;5068669;28;20036;-66
2021/05/08 01:13:58;;;;;;;6.00;1.92;;;6.40;75.70;;;;;;5068387;28;20033;-67
2021/05/08 01:16:24;;;;;;;;;;;6.40;75.40;;;;;;5068910;28;20040;-66
2021/05/08 01:18:52;;;;;;;4.53;2.00;;;6.30;75.40;;;;;;5068096;28;20432;-66
2021/05/08 01:21:22;;;;;;;2.15;1.08;;;6.30;75.20;;;;;;5068542;28;20053;-66
2021/05/08 01:23:49;;;;;;;2.55;1.17;;;6.30;73.90;;;;;;5068152;28;20016;-67
2021/05/08 01:26:15;;;;;;;2.45;1.20;;;6.40;73.90;;;;;;5068189;28;20033;-66
2021/05/08 01:28:40;;;;;;;;;;;6.40;74.00;;;;;;5067700;28;20055;-67
2021/05/08 01:31:10;;;;;;;4.55;1.13;;;6.40;74.10;;;;;;5068266;28;20356;-67
2021/05/08 01:33:35;;;;;;;2.88;1.27;;;6.30;74.50;;;;;;5067345;28;20089;-67
2021/05/08 01:36:01;;;;;;;;;;;6.30;75.20;;;;;;5068208;28;20111;-67
2021/05/08 01:38:27;;;;;;;2.50;0.93;;;6.20;75.60;;;;;;5068083;28;19999;-66
2021/05/08 01:41:00;;;;;;;;;;;6.20;75.80;;;;;;5066702;28;20397;-68
2021/05/08 01:43:26;;;;;;;1.77;1.02;;;6.10;76.30;;;;;;5068232;28;19970;-67
2021/05/08 01:45:52;;;;;;;5.78;1.90;;;6.00;76.60;;;;;;5067952;28;20013;-66
2021/05/08 01:48:18;;;;;;;;;;;6.00;77.00;;;;;;5068175;28;20028;-67
2021/05/08 01:50:43;;;;;;;2.33;1.33;;;6.00;77.20;;;;;;5067563;28;20324;-67
2021/05/08 01:53:09;;;;;;;;;;;5.90;77.80;;;;;;5067959;28;20689;-67
2021/05/08 01:55:34;;;;;;;4.07;1.70;;;5.90;77.80;;;;;;5067682;28;19958;-66
2021/05/08 01:58:00;;;;;;;;;;;5.80;77.90;;;;;;5068348;28;20767;-66
2021/05/08 02:00:27;;;;;;;2.55;1.30;;;5.80;78.30;;;;;;5067191;28;19920;-68
2021/05/08 02:02:54;;;;;;;3.80;1.10;;;5.80;78.30;;;;;;5067969;28;20028;-68
2021/05/08 02:05:27;;;;;;;3.03;1.60;;;5.70;78.30;;;;;;5067394;28;20028;-68
2021/05/08 02:07:53;;;;;;;2.78;1.20;;;5.70;78.60;;;;;;5066310;28;20408;-68
2021/05/08 02:10:18;;;;;;;;;;;5.70;78.70;;;;;;5067276;28;20032;-68
2021/05/08 02:12:44;;;;;;;2.05;1.20;;;5.60;79.00;;;;;;5067501;28;19908;-68
2021/05/08 02:15:11;;;;;;;;;;;5.50;79.00;;;;;;5067997;28;20028;-68
2021/05/08 02:17:38;;;;;;;2.20;0.95;;;5.50;79.40;;;;;;5067410;28;19961;-68
2021/05/08 02:20:11;;;;;;;3.60;1.58;;;5.50;80.10;;;;;;5067272;28;20532;-68
2021/05/08 02:22:37;;;;;;;3.08;1.38;;;5.40;79.80;;;;;;5067290;28;20025;-67
2021/05/08 02:25:05;;;;;;;3.33;1.50;;;5.40;80.00;;;;;;5065622;28;20416;-66
2021/05/08 02:27:31;;;;;;;3.40;1.98;;;5.40;80.20;;;;;;5066793;28;20036;-66
2021/05/08 02:29:56;;;;;;;;;;;5.40;80.30;;;;;;5067657;28;20025;-66
2021/05/08 02:32:22;;;;;;;4.47;1.83;;;5.30;80.40;;;;;;5066745;28;19909;-66
2021/05/08 02:34:48;;;;;;;;;;;5.40;80.10;;;;;;5067668;28;20386;-66
2021/05/08 02:37:14;;;;;;;9.95;1.48;;;5.50;79.80;;;;;;5066965;28;19908;-66
2021/05/08 02:39:39;;;;;;;;;;;5.50;79.60;;;;;;5066728;28;20029;-66
2021/05/08 02:42:05;;;;;;;5.65;1.85;;;5.60;79.30;;;;;;5066660;28;19955;-66
2021/05/08 02:44:30;;;;;;;;;;;5.60;79.00;;;;;;5067026;28;20321;-66
2021/05/08 02:46:56;;;;;;;4.60;1.70;;;5.60;79.10;;;;;;5066460;28;19908;-66
2021/05/08 02:49:22;;;;;;;;;;;5.70;78.20;;;;;;5067284;28;20198;-66
2021/05/08 02:51:47;;;;;;;2.70;1.70;;;5.70;78.00;;;;;;5066561;28;19990;-66
2021/05/08 02:54:13;;;;;;;;;;;5.70;77.60;;;;;;5066782;28;20514;-67
2021/05/08 02:56:38;;;;;;;3.15;1.63;;;5.80;77.60;;;;;;5066146;28;20357;-66
2021/05/08 02:59:04;;;;;;;;;;;5.80;77.10;;;;;;5067354;28;20032;-66
2021/05/08 03:01:29;;;;;;;4.53;1.90;;;5.80;76.90;;;;;;5066492;28;20386;-65
2021/05/08 03:03:55;;;;;;;4.38;2.25;;;5.90;77.10;;;;;;5065331;28;20032;-67
2021/05/08 03:06:21;;;;;;;;;;;5.90;77.10;;;;;;5066875;28;20103;-66
2021/05/08 03:08:47;;;;;;;4.68;2.42;;;6.00;77.60;;;;;;5065815;28;19908;-66
2021/05/08 03:11:12;;;;;;;;;;;6.00;77.00;;;;;;5066669;28;20032;-67
2021/05/08 03:13:38;;;;;;;3.67;1.95;;;6.00;77.10;;;;;;5065925;28;19909;-69
2021/05/08 03:16:04;;;;;;;;;;;5.90;77.40;;;;;;5064934;28;20031;-66
2021/05/08 03:18:30;;;;;;;3.63;2.30;;;5.90;77.50;;;;;;5065916;28;19909;-66
2021/05/08 03:20:55;;;;;;;5.45;2.40;;;5.80;77.70;;;;;;5066102;28;20131;-65
2021/05/08 03:23:21;;;;;;;3.22;2.13;;;5.80;77.60;;;;;;5065941;28;20159;-67
2021/05/08 03:25:46;;;;;;;;;;;5.90;77.70;;;;;;5066645;28;20485;-68
2021/05/08 03:28:12;;;;;;;4.75;2.15;;;5.90;77.20;;;;;;5065647;28;20407;-70
2021/05/08 03:30:38;;;;;;;;;;;5.90;77.10;;;;;;5066225;28;20397;-68
2021/05/08 03:33:04;;;;;;;4.43;2.35;;;5.90;76.80;;;;;;5064795;28;20058;-68
2021/05/08 03:35:30;;;;;;;3.83;2.45;;;5.90;76.50;;;;;;5065707;28;20028;-68
2021/05/08 03:37:55;;;;;;;;;;;6.00;76.10;;;;;;5066329;28;20024;-66
2021/05/08 03:40:21;;;;;;;5.30;2.10;;;6.10;75.50;;;;;;5065151;28;20562;-65
2021/05/08 03:42:47;;;;;;;4.10;2.35;;;6.10;75.10;;;;;;5066161;28;20032;-66
2021/05/08 03:45:12;;;;;;;;;;;6.20;74.50;;;;;;5066146;28;20654;-66
2021/05/08 03:47:38;;;;;;;3.60;2.25;;;6.30;74.10;;;;;;5066214;28;19949;-67
2021/05/08 03:50:04;;;;;;;;;;;6.30;73.70;;;;;;5066077;28;20751;-65
2021/05/08 03:52:31;;;;;;;4.63;2.58;;;6.40;73.40;;;;;;5065629;28;19911;-65
2021/05/08 03:54:56;;;;;;;5.13;2.53;;;6.40;73.60;;;;;;5065878;28;20029;-66
2021/05/08 03:57:22;;;;;;;;;;;6.70;72.90;;;;;;5066379;28;20071;-66
2021/05/08 03:59:47;;;;;;;3.97;2.15;;;6.90;71.80;;;;;;5065932;28;20521;-65
2021/05/08 04:02:13;;;;;;;;;;;7.20;70.70;;;;;;5065886;28;20074;-66
2021/05/08 04:04:38;;;;;;;5.05;2.28;;;7.60;69.00;;;;;;5065552;28;19911;-66
2021/05/08 04:07:04;;;;;;;;;;;7.70;68.50;;;;;;5065888;28;20940;-66
2021/05/08 04:09:30;;;;;;;3.53;2.08;;;7.90;67.90;;;;;;5065395;28;19904;-66
2021/05/08 04:11:55;;;;;;;;;;;8.30;66.80;;;;;;5066193;28;20032;-66
2021/05/08 04:14:21;;;;;;;3.85;2.05;;;8.70;64.80;;;;;;5066861;28;19916;-67
2021/05/08 04:16:46;;;;;;;;;;;8.90;64.20;;;;;;5070142;28;20067;-67
2021/05/08 04:19:12;;;;;;;3.95;2.03;;;9.00;63.30;;;;;;5069691;28;20354;-66
2021/05/08 04:21:37;;;;;;;;;;;9.00;63.60;;;;;;5067898;28;20052;-67
2021/05/08 04:24:04;;;;;;;4.70;1.88;;;9.00;62.90;;;;;;5067981;28;19962;-66
2021/05/08 04:26:30;;;;;;;3.67;1.90;;;9.00;63.20;;;;;;5068629;28;20518;-66
2021/05/08 04:28:55;;;;;;;;;;;9.00;63.90;;;;;;5069247;28;20020;-66
2021/05/08 04:31:21;;;;;;;2.63;1.70;;;9.00;62.90;;;;;;5069133;28;19915;-66
2021/05/08 04:33:47;;;;;;;;;;;9.00;63.10;;;;;;5068894;28;20115;-66
2021/05/08 04:36:12;;;;;;;3.78;2.00;;;9.10;62.80;;;;;;5068514;28;19905;-67
2021/05/08 04:38:39;;;;;;;;;;;9.30;62.20;;;;;;5069403;28;20408;-67
2021/05/08 04:41:05;;;;;;;5.80;2.05;;;9.50;61.90;;;;;;5068810;28;19922;-67
2021/05/08 04:43:31;;;;;;;;;;;9.60;61.50;;;;;;5068332;28;20048;-67
2021/05/08 04:45:56;;;;;;;4.20;1.92;;;9.70;60.80;;;;;;5069048;28;19981;-67
2021/05/08 04:48:23;;;;;;;;;;;9.80;59.80;;;;;;5069607;28;20029;-65
2021/05/08 04:50:49;;;;;;;4.72;1.70;;;9.90;58.20;;;;;;5068671;28;19924;-66
2021/05/08 04:53:15;;;;;;;3.53;1.38;;;9.90;58.50;;;;;;5068648;28;20498;-65
2021/05/08 04:55:41;;;;;;;;;;;10.00;59.00;;;;;;5069244;28;20060;-67
2021/05/08 04:58:07;;;;;;;3.45;1.33;;;10.20;57.20;;;;;;5068625;28;19927;-67
2021/05/08 05:00:32;;;;;;;;;;;10.40;57.00;;;;;;5069259;28;20059;-66
2021/05/08 05:02:58;;;;;;;2.08;0.70;;;10.50;56.10;;;;;;5068548;28;19908;-66
2021/05/08 05:05:24;;;;;;;;;;;10.50;56.00;;;;;;5067362;28;20131;-66
2021/05/08 05:07:49;;;;;;;4.70;1.35;;;10.70;54.90;;;;;;5068140;28;19914;-67
2021/05/08 05:10:15;;;;;;;;;;;11.00;53.60;;;;;;5068641;28;20028;-67
2021/05/08 05:12:41;;;;;;;1.63;0.98;;;11.40;51.80;;;;;;5068900;28;19998;-67
2021/05/08 05:15:07;;;;;;;;;;;11.70;51.00;;;;;;5068870;28;20028;-67
2021/05/08 05:17:33;;;;;;;1.83;0.90;;;12.00;49.10;;;;;;5068474;28;20003;-68
2021/05/08 05:19:58;;;;;;;;;;;12.30;48.60;;;;;;5068356;28;20124;-67
2021/05/08 05:22:24;;;;;;;1.77;0.80;;;12.50;47.90;;;;;;5066625;28;19908;-65
2021/05/08 05:24:49;;;;;;;;;;;12.80;47.80;;;;;;5068000;28;20032;-67
2021/05/08 05:27:15;;;;;;;2.92;1.00;;;12.60;46.50;;;;;;5067302;28;19908;-66
2021/05/08 05:29:41;;;;;;;;;;;12.90;47.40;;;;;;5068871;28;20771;-67
2021/05/08 05:32:06;;;;;;;2.65;1.02;;;13.20;46.00;;;;;;5068493;28;19998;-67
2021/05/08 05:34:32;;;;;;;;;;;13.60;44.90;;;;;;5068188;28;20031;-67
2021/05/08 05:36:58;;;;;;;1.95;0.80;;;13.70;44.20;;;;;;5067895;28;20027;-67
2021/05/08 05:39:23;;;;;;;3.85;1.15;;;13.90;44.00;;;;;;5068176;28;20047;-67
2021/05/08 05:41:49;;;;;;;2.05;0.90;;;14.70;42.30;;;;;;5067798;28;20423;-67
2021/05/08 05:44:14;;;;;;;;;;;15.40;39.50;;;;;;5068329;28;20032;-68
2021/05/08 05:46:40;;;;;;;2.17;0.60;;;15.50;37.40;;;;;;5068125;28;19904;-67
2021/05/08 05:49:06;;;;;;;1.63;0.80;;;15.60;38.90;;;;;;5067946;28;20027;-67
2021/05/08 05:51:31;;;;;;;1.67;0.88;;;16.30;36.70;;;;;;5067400;28;20857;-67
2021/05/08 05:53:57;;;;;;;2.50;0.90;;;16.30;36.20;;;;;;5067822;28;20562;-68
2021/05/08 05:56:27;;;;;;;2.90;1.13;;;16.50;34.20;;;;;;5067328;28;20034;-67
2021/05/08 05:58:53;;;;;;;2.15;1.05;;;17.00;35.70;;;;;;5067924;28;20029;-67
2021/05/08 06:01:20;;;;;;;1.85;0.90;;;18.10;34.70;;;;;;5067428;28;20032;-68
2021/05/08 06:03:46;;;;;;;1.20;0.77;;;18.70;30.80;;;;;;5067404;28;20024;-67
2021/05/08 06:06:12;;;;;;;2.10;1.05;;;19.70;29.80;;;;;;5066092;28;20036;-67
2021/05/08 06:08:38;;;;;;;3.10;0.85;;;20.50;29.50;;;;;;5065830;28;20107;-67
2021/05/08 06:11:06;;;;;;;1.38;0.85;;;20.90;28.70;;;;;;5066484;28;20519;-68
2021/05/08 06:13:33;;;;;;;1.92;1.15;;;21.10;26.80;;;;;;5067758;28;20500;-68
2021/05/08 06:15:59;;;;;;;1.65;1.00;;;21.80;26.40;;;;;;5066292;28;20039;-67
2021/05/08 06:18:25;;;;;;;1.45;0.95;;;22.60;25.20;;;;;;5065855;28;20055;-68
2021/05/08 06:20:51;;;;;;;1.33;0.70;;;22.30;25.50;;;;;;5066730;28;20080;-68
2021/05/08 06:23:18;;;;;;;3.05;1.33;;;22.60;24.50;;;;;;5065418;28;20067;-66
2021/05/08 06:25:43;;;;;;;2.42;1.02;;;23.10;23.50;;;;;;5067357;28;20639;-66
2021/05/08 06:28:09;;;;;;;1.75;0.93;;;23.70;23.50;;;;;;5067085;28;20103;-67
2021/05/08 06:30:35;;;;;;;4.25;1.10;;;23.60;22.80;;;;;;5066985;28;20059;-66
2021/05/08 06:33:00;;;;;;;2.75;0.88;;;23.20;23.80;;;;;;5066813;28;20111;-67
2021/05/08 06:35:26;;;;;;;2.92;1.35;;;23.60;23.20;;;;;;5063782;28;20067;-66
2021/05/08 06:37:52;;;;;;;2.00;1.10;;;23.10;22.70;;;;;;5046662;28;20064;-66
2021/05/08 06:40:17;;;;;;;4.18;1.70;;;23.00;23.60;;;;;;5045439;28;20120;-67
2021/05/08 06:42:44;;;;;;;2.50;0.75;;;23.50;22.90;;;;;;5044946;28;20053;-66
2021/05/08 06:45:10;;;;;;;4.97;1.33;;;23.00;23.60;;;;;;5043827;28;20436;-66
2021/05/08 06:47:36;;;;;;;2.22;0.70;;;22.80;23.10;;;;;;5041817;28;20033;-66
2021/05/08 06:50:02;;;;;;;2.15;0.93;;;22.50;23.60;;;;;;5043745;28;20025;-66
2021/05/08 06:52:28;;;;;;;1.80;0.90;;;23.20;23.10;;;;;;5057484;28;20028;-65
2021/05/08 06:54:53;;;;;;;1.67;0.80;;;23.50;22.90;;;;;;5065290;28;20055;-67
2021/05/08 06:57:19;;;;;;;4.57;0.80;;;23.30;23.90;;;;;;5048551;28;20036;-67
2021/05/08 06:59:44;;;;;;;3.90;1.30;;;23.40;23.60;;;;;;5066749;28;20028;-67
2021/05/08 07:02:10;;;;;;;5.50;0.90;;;23.10;23.80;;;;;;5066139;28;20040;-67
2021/05/08 07:04:36;;;;;;;1.73;1.00;;;23.80;23.20;;;;;;5065616;28;20480;-67
2021/05/08 07:07:02;;;;;;;1.55;0.90;;;24.10;23.20;;;;;;5065141;28;20025;-68
2021/05/08 07:09:28;;;;;;;1.08;0.80;;;23.40;23.10;;;;;;5065294;28;20039;-68
2021/05/08 07:11:53;;;;;;;1.65;0.80;;;24.00;23.50;;;;;;5065586;28;20580;-67
2021/05/08 07:14:19;;;;;;;1.83;0.60;;;24.10;23.30;;;;;;5065548;28;20029;-67
2021/05/08 07:16:45;;;;;;;6.68;1.13;;;24.70;22.70;;;;;;5063709;28;20129;-66
2021/05/08 07:19:10;;;;;;;5.55;1.30;;;24.60;21.80;;;;;;5063943;28;20110;-67
2021/05/08 07:21:38;;;;;;;2.75;1.30;;;24.20;21.90;;;;;;5065256;28;20152;-67
2021/05/08 07:24:05;;;;;;;1.77;0.75;;;23.70;22.30;;;;;;5064705;28;20075;-68
2021/05/08 07:26:31;;;;;;;1.20;0.70;;;23.30;22.20;;;;;;5063991;28;20101;-67
2021/05/08 07:28:56;;;;;;;1.70;1.00;;;23.30;22.80;;;;;;5065106;28;20477;-67
2021/05/08 07:31:22;;;;;;;1.95;0.77;;;23.30;23.00;;;;;;5064831;28;20420;-66
2021/05/08 07:33:47;;;;;;;5.05;1.15;;;23.10;23.90;;;;;;5065601;28;20064;-67
2021/05/08 07:36:13;;;;;;;2.00;0.98;;;23.60;22.70;;;;;;5064258;28;20051;-67
2021/05/08 07:38:39;;;;;;;5.70;0.70;;;23.70;21.90;;;;;;5065305;28;20404;-67
2021/05/08 07:41:04;;;;;;;1.52;0.93;;;22.70;22.30;;;;;;5065076;28;20048;-67
2021/05/08 07:43:30;;;;;;;1.70;0.90;;;22.80;23.30;;;;;;5064835;28;20166;-67
2021/05/08 07:45:56;;;;;;;1.85;0.98;;;22.60;24.20;;;;;;5065147;28;20034;-67
2021/05/08 07:48:22;;;;;;;2.10;1.08;;;22.50;24.00;;;;;;5064634;28;20539;-67
2021/05/08 07:50:47;;;;;;;1.60;0.70;;;23.30;23.70;;;;;;5063066;28;20032;-67
2021/05/08 07:53:13;;;;;;;2.00;1.15;;;23.00;23.20;;;;;;5064999;28;20043;-66
2021/05/08 07:55:39;;;;;;;1.90;0.90;;;23.40;23.00;;;;;;5064795;28;20029;-66
2021/05/08 07:58:05;;;;;;;1.95;0.93;;;23.90;23.40;;;;;;5065627;28;20036;-68
2021/05/08 08:00:31;;;;;;;3.25;1.10;;;24.00;22.00;;;;;;5065194;28;20041;-66
2021/05/08 08:02:57;;;;;;;2.38;0.70;;;23.80;23.70;;;;;;5065866;28;20036;-66
2021/05/08 08:05:23;;;;;;;2.30;0.73;;;23.90;23.20;;;;;;5064869;28;20405;-67
2021/05/08 08:07:49;;;;;;;1.55;0.70;;;24.10;23.20;;;;;;5064413;28;20029;-67
2021/05/08 08:10:14;;;;;;;1.30;0.70;;;24.50;23.20;;;;;;5065440;28;20029;-67
2021/05/08 08:12:41;;;;;;;1.42;0.70;;;25.00;23.00;;;;;;5065680;28;20388;-65
2021/05/08 08:15:10;;;;;;;1.92;0.90;;;25.10;22.20;;;;;;5064922;28;20830;-66
2021/05/08 08:17:36;;;;;;;1.05;0.70;;;25.20;22.30;;;;;;5065675;28;20027;-66
2021/05/08 08:20:07;;;;;;;1.10;0.55;;;25.30;22.20;;;;;;5065245;28;20132;-67
2021/05/08 08:22:33;;;;;;;1.90;0.70;;;25.30;22.50;;;;;;5063564;28;20659;-66
2021/05/08 08:24:59;;;;;;;2.55;0.90;;;25.70;22.40;;;;;;5065654;28;20033;-67
2021/05/08 08:27:25;;;;;;;1.27;0.50;;;25.60;22.30;;;;;;5065690;28;20040;-67
2021/05/08 08:29:51;;;;;;;1.20;0.60;;;25.90;22.40;;;;;;5065167;28;20463;-66
2021/05/08 08:32:17;;;;;;;1.13;0.73;;;25.90;21.60;;;;;;5065710;28;20037;-67
2021/05/08 08:34:42;;;;;;;2.72;0.75;;;25.60;21.90;;;;;;5064826;28;20427;-66
2021/05/08 08:37:09;;;;;;;0.90;0.50;;;25.70;21.70;;;;;;5065506;28;20569;-66
2021/05/08 08:39:35;;;;;;;0.80;0.60;;;25.80;20.70;;;;;;5063895;28;20114;-66
2021/05/08 08:42:02;;;;;;;1.35;0.60;;;25.60;20.70;;;;;;5065780;28;20064;-66
2021/05/08 08:44:28;;;;;;;1.08;0.57;;;25.50;20.90;;;;;;5065564;28;20679;-66
2021/05/08 08:46:54;;;;;;;1.17;0.50;;;25.30;21.10;;;;;;5065503;28;20028;-66
2021/05/08 08:49:21;;;;;;;1.48;0.65;;;25.60;21.30;;;;;;5064941;28;20027;-66
2021/05/08 08:51:46;;;;;;;1.67;0.80;;;25.70;21.10;;;;;;5065132;28;20515;-66
2021/05/08 08:54:13;;;;;;;4.97;0.80;;;25.90;21.10;;;;;;5065170;28;20020;-66
2021/05/08 08:56:42;;;;;;;1.58;0.70;;;25.30;21.20;;;;;;5063856;28;20452;-66
2021/05/08 08:59:43;;;;;;;1.60;0.77;;;25.30;21.40;;;;;;5065628;28;20054;-67
2021/05/08 09:02:02;;;;;;;3.22;0.80;;;25.20;21.60;;;;;;5065380;28;20733;-66
2021/05/08 09:04:27;;;;;;;2.40;0.80;;;25.00;22.50;;;;;;5068603;28;20039;-66
2021/05/08 09:06:54;;;;;;;1.17;0.77;;;25.20;22.90;;;;;;5068644;28;20031;-66
2021/05/08 09:09:20;;;;;;;1.15;0.65;;;25.20;22.20;;;;;;5068603;28;20097;-65
2021/05/08 09:11:51;;;;;;;1.30;0.60;;;25.30;22.40;;;;;;5068449;28;20390;-66
2021/05/08 09:14:25;;;;;;;1.48;1.00;;;25.20;21.70;;;;;;5068807;28;20043;-66
2021/05/08 09:17:07;;;;;;;1.02;0.70;;;25.30;21.80;;;;;;5068309;28;20070;-66
2021/05/08 09:19:36;;;;;;;1.38;0.77;;;25.60;21.50;;;;;;5068209;28;20028;-66
2021/05/08 09:22:23;;;;;;;1.45;0.70;;;25.40;22.20;;;;;;5068578;28;20063;-67
2021/05/08 09:25:15;;;;;;;2.42;1.00;;;25.60;22.00;;;;;;5068593;28;20024;-66
2021/05/08 09:27:45;;;;;;;1.02;0.60;;;25.30;22.00;;;;;;5067411;28;20027;-67
2021/05/08 09:30:20;;;;;;;2.38;0.60;;;25.40;21.70;;;;;;5068581;28;20056;-66
2021/05/08 09:32:48;;;;;;;4.20;1.38;;;25.80;21.20;;;;;;5067926;28;20063;-66
2021/05/08 09:35:25;;;;;;;1.35;0.70;;;25.70;21.20;;;;;;5066119;28;20097;-68
2021/05/08 09:38:06;;;;;;;1.30;0.68;;;25.40;21.40;;;;;;5067918;28;20028;-66
2021/05/08 09:40:32;;;;;;;4.88;0.60;;;24.90;21.90;;;;;;5067795;28;20044;-67
2021/05/08 09:42:59;;;;;;;0.93;0.60;;;24.60;22.30;;;;;;5068432;28;20031;-66
2021/05/08 09:45:26;;;;;;;1.77;0.50;;;24.90;22.00;;;;;;5068010;28;20116;-65
2021/05/08 09:47:54;;;;;;;1.83;0.80;;;25.50;21.20;;;;;;5068207;28;20037;-66
2021/05/08 09:50:22;;;;;;;0.82;0.60;;;25.20;22.20;;;;;;5067501;28;20059;-66
2021/05/08 09:52:54;;;;;;;0.82;0.50;;;25.40;22.10;;;;;;5067955;28;20031;-66
2021/05/08 09:55:21;;;;;;;5.78;0.60;;;25.70;21.90;;;;;;5067465;28;20055;-66
2021/05/08 09:58:07;;;;;;;1.30;0.50;;;25.90;21.40;;;;;;5066463;28;20043;-66
2021/05/08 10:00:38;;;;;;;3.20;0.85;;;25.50;22.30;;;;;;5067771;28;20062;-68
2021/05/08 10:03:12;;;;;;;0.93;0.60;;;25.60;22.00;;;;;;5067355;28;20365;-68
2021/05/08 10:06:02;;;;;;;1.60;0.70;;;25.20;21.90;;;;;;5067848;28;20028;-68
2021/05/08 10:08:28;;;;;;;1.30;0.50;;;24.40;22.60;;;;;;5062010;28;20048;-67
2021/05/08 10:10:54;;;;;;;2.25;0.55;;;23.40;23.20;;;;;;5067282;28;20032;-67
2021/05/08 10:13:20;;;;;;;4.75;0.80;;;22.60;24.70;;;;;;5067155;28;20020;-66
2021/05/08 10:15:47;;;;;;;1.38;0.60;;;21.90;25.00;;;;;;5067085;28;20477;-67
2021/05/08 10:18:14;;;;;;;0.90;0.50;;;21.70;25.80;;;;;;5067189;28;20028;-67
2021/05/08 10:20:41;;;;;;;0.95;0.45;;;21.40;25.70;;;;;;5066609;28;20044;-66
2021/05/08 10:23:09;;;;;;;1.40;0.45;;;21.00;25.80;;;;;;5067456;28;20028;-67
2021/05/08 10:25:37;;;;;;;0.85;0.40;;;20.80;26.10;;;;;;5066484;28;20024;-68
2021/05/08 10:28:03;;;;;;;4.43;0.55;;;20.50;26.20;;;;;;5066682;28;20028;-68
2021/05/08 10:30:33;;;;;;;1.05;0.40;;;20.30;26.90;;;;;;5066476;28;20024;-66
2021/05/08 10:32:59;;;;;;;1.58;0.40;;;20.10;26.70;;;;;;5066198;28;20024;-67
2021/05/08 10:35:52;;;;;;;0.52;0.30;;;19.70;27.00;;;;;;5065497;28;20039;-67
2021/05/08 10:38:33;;;;;;;3.00;0.57;;;19.00;26.10;;;;;;5063847;28;20113;-67
2021/05/08 10:41:02;;;;;;;2.03;0.55;;;18.90;29.40;;;;;;5065779;28;20407;-67
2021/05/08 10:43:57;;;;;;;1.48;0.40;;;19.00;28.20;;;;;;5065984;28;20020;-68
2021/05/08 10:46:24;;;;;;;2.60;0.50;;;19.20;27.60;;;;;;5065978;28;20035;-67
2021/05/08 10:49:12;;;;;;;1.67;0.45;;;19.00;28.80;;;;;;5065230;28;20024;-67
2021/05/08 10:51:53;;;;;;;2.10;0.32;;;18.70;27.90;;;;;;5066650;28;20028;-67
2021/05/08 10:54:39;;;;;;;1.02;0.40;;;18.60;28.00;;;;;;5065126;28;20036;-68
2021/05/08 10:57:24;;;;;;;1.75;0.40;;;18.70;28.90;;;;;;5064434;28;20427;-68
2021/05/08 11:00:10;;;;;;;0.50;0.35;;;18.70;29.00;;;;;;5065806;28;20024;-67
2021/05/08 11:02:42;;;;;;;0.60;0.40;;;18.80;28.30;;;;;;5041478;28;20462;-67
2021/05/08 11:05:31;;;;;;;2.03;0.35;;;18.50;27.80;;;;;;5051640;28;20134;-67
2021/05/08 11:07:56;;;;;;;1.13;0.40;;;18.20;28.60;;;;;;5056727;28;20452;-67
2021/05/08 11:10:34;;;;;;;1.42;0.25;;;18.00;28.50;;;;;;5053814;28;20032;-67
2021/05/08 11:13:06;;;;;;;1.65;0.30;;;17.90;29.00;;;;;;5053572;28;20252;-67
2021/05/08 11:16:13;;;;;;;0.75;0.30;;;18.10;29.80;;;;;;5062994;28;20487;-67
2021/05/08 11:18:41;;;;;;;2.38;0.40;;;18.10;30.00;;;;;;5043540;28;20041;-68
2021/05/08 11:21:18;;;;;;;0.90;0.30;;;18.10;28.60;;;;;;5064922;28;20049;-67
2021/05/08 11:23:57;;;;;;;0.60;0.30;;;18.10;27.90;;;;;;5049736;28;20033;-66
2021/05/08 11:29:04;;;;;;;1.15;0.30;;;18.30;28.70;;;;;;5053000;28;20048;-65
2021/05/08 11:31:30;;;;;;;0.63;0.38;;;18.40;28.70;;;;;;5052595;28;20059;-66
2021/05/08 11:34:29;;;;;;;0.75;0.40;;;18.50;28.70;;;;;;5054315;28;20097;-67
2021/05/08 11:37:02;;;;;;;2.25;0.57;;;18.40;28.70;;;;;;5052106;28;20028;-67
2021/05/08 11:39:29;;;;;;;2.22;0.50;;;18.40;29.50;;;;;;5051432;28;20159;-67
2021/05/08 11:41:57;;;;;;;0.60;0.30;;;18.50;27.90;;;;;;5053056;28;20112;-67
2021/05/08 11:44:27;;;;;;;0.95;0.30;;;18.50;28.20;;;;;;5054053;28;20021;-67
2021/05/08 11:46:55;;;;;;;1.80;0.90;;;18.40;27.70;;;;;;5048019;28;20122;-66
2021/05/08 11:49:28;;;;;;;4.72;0.47;;;18.30;28.40;;;;;;5053791;28;20600;-65
2021/05/08 11:51:54;;;;;;;5.50;0.40;;;18.30;28.00;;;;;;5064194;28;20784;-67
2021/05/08 11:54:19;;;;;;;0.90;0.30;;;18.30;28.00;;;;;;5052987;28;20591;-66
2021/05/08 11:56:45;;;;;;;0.90;0.30;;;18.20;27.90;;;;;;5052645;28;20107;-67
2021/05/08 11:59:11;;;;;;;2.75;0.40;;;18.20;28.00;;;;;;5054423;28;20035;-67
2021/05/08 12:01:36;;;;;;;1.95;0.50;;;18.00;27.70;;;;;;5047625;28;20066;-66
2021/05/08 12:04:05;;;;;;;1.40;0.40;;;17.80;28.00;;;;;;5044094;28;20486;-66
2021/05/08 12:06:31;;;;;;;0.73;0.30;;;17.70;28.80;;;;;;5044387;28;20378;-66
2021/05/08 12:08:57;;;;;;;1.15;0.40;;;17.70;29.40;;;;;;5045945;28;20029;-66
2021/05/08 12:11:24;;;;;;;1.45;0.30;;;17.80;28.20;;;;;;5044970;28;20033;-66
2021/05/08 12:13:50;;;;;;;1.00;0.40;;;17.80;27.60;;;;;;5065054;28;20040;-66
2021/05/08 12:16:16;;;;;;;1.42;0.40;;;17.60;27.40;;;;;;5065202;28;20032;-66
2021/05/08 12:18:43;;;;;;;1.75;0.40;;;17.60;28.50;;;;;;5064029;28;20471;-67
2021/05/08 12:21:13;;;;;;;1.58;0.40;;;17.70;28.60;;;;;;5064850;28;20057;-67
2021/05/08 12:23:40;;;;;;;0.70;0.25;;;17.80;28.30;;;;;;5065029;28;20020;-67
2021/05/08 12:26:05;;;;;;;1.10;0.63;;;17.80;27.90;;;;;;5065246;28;20408;-66
2021/05/08 12:28:39;;;;;;;0.65;0.32;;;17.80;28.40;;;;;;5065150;28;20028;-67
2021/05/08 12:31:23;;;;;;;1.50;0.35;;;17.80;28.40;;;;;;5065799;28;20037;-66
2021/05/08 12:33:50;;;;;;;1.20;0.40;;;17.90;28.30;;;;;;5063526;28;20032;-67
2021/05/08 12:36:20;;;;;;;2.08;0.43;;;18.00;28.50;;;;;;5068082;28;20533;-66
2021/05/08 12:38:46;;;;;;;2.30;0.57;;;18.10;28.10;;;;;;5069384;28;20551;-67
2021/05/08 12:41:27;;;;;;;0.98;0.60;;;18.20;28.60;;;;;;5069318;28;20036;-67
2021/05/08 12:44:03;;;;;;;1.08;0.40;;;18.30;27.90;;;;;;5069317;28;20029;-67
2021/05/08 12:46:28;;;;;;;1.75;0.40;;;18.40;28.00;;;;;;5067622;28;20060;-66
2021/05/08 12:49:05;;;;;;;1.05;0.30;;;18.40;28.00;;;;;;5068894;28;20071;-67
2021/05/08 12:51:34;;;;;;;0.77;0.30;;;18.40;28.90;;;;;;5069258;28;20128;-66
2021/05/08 12:54:18;;;;;;;1.67;0.40;;;18.30;27.00;;;;;;5069202;28;20021;-66
2021/05/08 12:56:45;;;;;;;0.73;0.28;;;18.20;26.90;;;;;;5069158;28;20040;-67
2021/05/08 12:59:11;;;;;;;3.28;0.65;;;18.10;27.30;;;;;;5068643;28;20044;-67
2021/05/08 13:01:39;;;;;;;1.17;0.50;;;18.10;27.30;;;;;;5067485;28;20504;-66
2021/05/08 13:04:05;;;;;;;1.70;0.75;;;18.10;26.30;;;;;;5067209;28;20027;-66
2021/05/08 13:06:31;;;;;;;2.63;0.70;;;18.00;27.50;;;;;;5068736;28;20024;-66
2021/05/08 13:08:56;;;;;;;1.50;0.60;;;18.10;27.40;;;;;;5068935;28;20031;-66
2021/05/08 13:11:44;;;;;;;1.08;0.30;;;18.10;27.10;;;;;;5068871;28;20033;-66